Time;durP1;ratioP1;P1;durP2;ratioP2;P2;SDS_P1;SDS_P2;PMS_P1;PMS_P2;Temp;Humidity;BMP_temperature;BMP_pressure;BME280_temperature;BME280_humidity;BME280_pressure;Samples;Min_cycle;Max_cycle;Signal;HPM_P1;HPM_P2
2021/03/07 00:00:51;;;;;;;10.83;7.50;;;1.00;87.50;;;;;;5114602;27;20210;-50
2021/03/07 00:03:16;;;;;;;8.45;7.03;;;1.00;88.10;;;;;;5123544;27;20195;-50
2021/03/07 00:05:42;;;;;;;11.97;8.57;;;1.00;88.00;;;;;;5114778;27;20220;-50
2021/03/07 00:08:08;;;;;;;9.60;6.93;;;0.90;87.80;;;;;;5114619;27;20301;-50
2021/03/07 00:10:33;;;;;;;9.60;7.13;;;0.80;88.40;;;;;;5116075;27;20187;-50
2021/03/07 00:12:59;;;;;;;8.17;6.73;;;0.90;89.60;;;;;;5114668;27;20640;-50
2021/03/07 00:15:25;;;;;;;10.00;7.33;;;0.80;89.30;;;;;;5114534;27;20224;-50
2021/03/07 00:17:51;;;;;;;9.60;7.10;;;0.90;89.50;;;;;;5113405;27;20986;-50
2021/03/07 00:20:19;;;;;;;11.45;7.90;;;0.90;89.60;;;;;;5114352;27;20180;-50
2021/03/07 00:22:45;;;;;;;9.25;7.20;;;0.80;89.70;;;;;;5114250;27;20183;-51
2021/03/07 00:25:13;;;;;;;8.55;7.65;;;1.00;89.70;;;;;;5114055;27;20189;-50
2021/03/07 00:27:39;;;;;;;9.05;6.80;;;0.70;89.70;;;;;;5113945;27;20284;-50
2021/03/07 00:30:08;;;;;;;10.23;7.72;;;0.80;89.70;;;;;;5114044;27;20231;-50
2021/03/07 00:32:33;;;;;;;9.55;7.25;;;0.50;89.90;;;;;;5113590;27;20206;-51
2021/03/07 00:34:59;;;;;;;10.23;7.50;;;0.30;90.20;;;;;;5113829;27;20684;-50
2021/03/07 00:37:25;;;;;;;8.63;7.00;;;0.60;90.90;;;;;;5113845;27;20691;-49
2021/03/07 00:39:50;;;;;;;9.13;7.53;;;0.40;90.60;;;;;;5107295;27;20634;-50
2021/03/07 00:42:16;;;;;;;8.77;6.50;;;0.40;90.60;;;;;;5113807;27;20432;-50
2021/03/07 00:44:42;;;;;;;9.97;7.80;;;0.30;90.60;;;;;;5114134;27;20278;-50
2021/03/07 00:47:08;;;;;;;8.48;6.43;;;0.40;90.60;;;;;;5113294;27;20600;-50
2021/03/07 00:49:34;;;;;;;9.57;6.57;;;0.60;90.90;;;;;;5113871;27;20426;-49
2021/03/07 00:52:00;;;;;;;8.10;6.80;;;0.40;90.70;;;;;;5113329;27;20819;-50
2021/03/07 00:54:26;;;;;;;9.77;7.47;;;0.50;90.50;;;;;;5120197;27;20246;-50
2021/03/07 00:56:53;;;;;;;9.30;6.70;;;0.60;90.10;;;;;;5113118;27;20207;-49
2021/03/07 00:59:19;;;;;;;7.97;6.75;;;0.70;90.60;;;;;;5113584;27;20232;-50
2021/03/07 01:01:44;;;;;;;10.60;8.03;;;0.70;90.50;;;;;;5131626;27;20190;-50
2021/03/07 01:04:10;;;;;;;9.23;6.40;;;0.40;90.60;;;;;;5113059;27;20857;-51
2021/03/07 01:06:36;;;;;;;6.83;5.93;;;0.30;90.70;;;;;;5112872;27;20234;-50
2021/03/07 01:09:03;;;;;;;7.97;6.63;;;0.50;91.00;;;;;;5103182;27;20201;-50
2021/03/07 01:11:28;;;;;;;9.57;7.43;;;0.50;91.30;;;;;;5118939;27;20428;-49
2021/03/07 01:13:54;;;;;;;11.10;7.10;;;0.70;91.90;;;;;;5113089;27;20244;-51
2021/03/07 01:16:21;;;;;;;9.32;7.35;;;0.40;91.80;;;;;;5112563;27;20235;-50
2021/03/07 01:18:47;;;;;;;9.02;6.65;;;0.50;91.60;;;;;;5112710;27;20630;-50
2021/03/07 01:21:13;;;;;;;10.10;7.13;;;0.20;91.50;;;;;;5112920;27;20213;-50
2021/03/07 01:23:39;;;;;;;8.82;6.30;;;0.40;91.70;;;;;;5113184;27;20432;-50
2021/03/07 01:26:04;;;;;;;7.70;6.87;;;0.50;91.60;;;;;;5112712;27;20186;-50
2021/03/07 01:28:30;;;;;;;8.67;5.80;;;0.10;91.20;;;;;;5123996;27;20213;-50
2021/03/07 01:30:56;;;;;;;7.50;6.70;;;0.20;91.60;;;;;;5112701;27;20439;-50
2021/03/07 01:33:21;;;;;;;9.37;7.40;;;0.40;91.90;;;;;;5112600;27;20191;-50
2021/03/07 01:35:47;;;;;;;7.57;6.60;;;0.40;91.70;;;;;;5131545;27;20447;-49
2021/03/07 01:38:14;;;;;;;9.97;7.23;;;0.40;92.00;;;;;;5112469;27;20246;-50
2021/03/07 01:40:50;;;;;;;8.88;6.40;;;0.30;91.70;;;;;;5110220;27;20445;-50
2021/03/07 01:43:18;;;;;;;10.50;7.70;;;0.30;91.90;;;;;;5112439;27;20761;-50
2021/03/07 01:45:44;;;;;;;7.53;5.95;;;0.30;92.00;;;;;;5112352;27;20648;-50
2021/03/07 01:48:11;;;;;;;9.63;6.27;;;0.20;91.60;;;;;;5112090;27;20195;-50
2021/03/07 01:50:40;;;;;;;9.05;6.05;;;0.40;91.40;;;;;;5108494;28;20562;-50
2021/03/07 01:53:06;;;;;;;7.50;6.10;;;0.00;91.60;;;;;;5121554;27;20201;-50
2021/03/07 01:55:35;;;;;;;11.35;7.70;;;0.10;92.10;;;;;;5112393;27;20285;-50
2021/03/07 01:58:17;;;;;;;7.90;6.22;;;0.20;92.40;;;;;;5111395;27;20203;-50
2021/03/07 02:00:43;;;;;;;7.32;5.70;;;0.00;92.20;;;;;;5111708;27;20654;-50
2021/03/07 02:03:09;;;;;;;8.33;6.10;;;0.10;92.20;;;;;;5111635;27;20181;-50
2021/03/07 02:05:35;;;;;;;9.30;6.20;;;0.10;92.40;;;;;;5111920;27;20787;-50
2021/03/07 02:08:02;;;;;;;8.00;6.50;;;0.00;92.60;;;;;;5130221;27;20442;-50
2021/03/07 02:10:31;;;;;;;7.55;6.18;;;0.10;93.00;;;;;;5130316;27;20273;-50
2021/03/07 02:13:02;;;;;;;7.35;5.90;;;-0.10;93.10;;;;;;5111303;27;20235;-50
2021/03/07 02:15:31;;;;;;;7.57;6.45;;;0.10;93.30;;;;;;5112276;27;20201;-50
2021/03/07 02:17:58;;;;;;;8.30;6.70;;;0.00;93.10;;;;;;5111264;27;20205;-50
2021/03/07 02:20:25;;;;;;;7.72;6.05;;;0.10;92.90;;;;;;5111679;27;20183;-50
2021/03/07 02:23:06;;;;;;;8.15;6.47;;;0.00;92.50;;;;;;5111965;27;20191;-50
2021/03/07 02:25:32;;;;;;;9.82;6.22;;;-0.10;92.60;;;;;;5111792;27;20212;-50
2021/03/07 02:27:59;;;;;;;8.15;5.78;;;0.10;92.90;;;;;;5111461;27;20256;-50
2021/03/07 02:30:26;;;;;;;9.57;6.35;;;0.20;93.10;;;;;;5111881;27;20214;-50
2021/03/07 02:33:01;;;;;;;7.18;6.45;;;-0.10;92.50;;;;;;5111577;27;20190;-50
2021/03/07 02:35:30;;;;;;;9.02;6.40;;;-0.20;93.20;;;;;;5130571;27;20186;-51
2021/03/07 02:37:58;;;;;;;8.07;5.97;;;-0.30;93.40;;;;;;5129997;27;20573;-50
2021/03/07 02:40:27;;;;;;;8.05;6.30;;;-0.50;93.40;;;;;;5105997;28;20176;-50
2021/03/07 02:42:55;;;;;;;7.15;6.30;;;-0.40;93.80;;;;;;5109841;27;20183;-50
2021/03/07 02:45:22;;;;;;;6.85;6.00;;;-0.30;93.70;;;;;;5112415;27;20191;-50
2021/03/07 02:47:51;;;;;;;7.85;6.32;;;-0.10;93.50;;;;;;5111689;27;20280;-50
2021/03/07 02:50:21;;;;;;;9.30;5.97;;;0.00;93.80;;;;;;5109551;28;20195;-50
2021/03/07 02:52:51;;;;;;;6.97;5.70;;;-0.20;93.50;;;;;;5112996;28;20179;-50
2021/03/07 02:55:24;;;;;;;6.95;5.20;;;-0.10;93.50;;;;;;5112174;28;20180;-50
2021/03/07 02:57:51;;;;;;;8.20;6.13;;;0.10;93.30;;;;;;5112004;28;20702;-49
2021/03/07 03:00:18;;;;;;;6.47;5.53;;;0.10;92.90;;;;;;5111917;28;20198;-50
2021/03/07 03:02:45;;;;;;;8.13;5.72;;;0.20;92.90;;;;;;5111612;28;20185;-50
2021/03/07 03:05:12;;;;;;;8.57;5.57;;;0.10;92.90;;;;;;5111862;28;20597;-49
2021/03/07 03:07:40;;;;;;;8.10;6.15;;;0.00;92.90;;;;;;5110964;27;20686;-51
2021/03/07 03:10:08;;;;;;;7.43;5.03;;;-0.30;93.00;;;;;;5111273;28;20195;-50
2021/03/07 03:12:36;;;;;;;6.97;5.53;;;-0.20;93.50;;;;;;5111398;28;20855;-50
2021/03/07 03:15:04;;;;;;;5.97;4.97;;;0.10;93.60;;;;;;5111238;28;20255;-50
2021/03/07 03:17:30;;;;;;;7.25;5.82;;;-0.10;93.00;;;;;;5112292;27;20247;-50
2021/03/07 03:19:57;;;;;;;9.10;6.27;;;0.10;93.00;;;;;;5115400;27;20694;-50
2021/03/07 03:22:22;;;;;;;7.25;6.05;;;0.00;92.50;;;;;;5115372;27;20440;-50
2021/03/07 03:24:48;;;;;;;6.93;5.20;;;0.10;92.80;;;;;;5115383;27;20197;-50
2021/03/07 03:27:15;;;;;;;10.10;6.57;;;0.20;92.70;;;;;;5118043;27;20207;-50
2021/03/07 03:29:41;;;;;;;7.22;5.88;;;0.20;93.00;;;;;;5114939;27;20956;-49
2021/03/07 03:32:07;;;;;;;7.10;6.13;;;0.10;92.90;;;;;;5115660;27;20609;-50
2021/03/07 03:34:34;;;;;;;7.70;5.85;;;0.00;92.70;;;;;;5115359;27;20489;-50
2021/03/07 03:36:59;;;;;;;7.70;6.13;;;0.10;92.90;;;;;;5105779;27;20226;-50
2021/03/07 03:39:28;;;;;;;8.10;5.83;;;0.20;92.80;;;;;;5115270;27;20678;-50
2021/03/07 03:42:04;;;;;;;6.20;5.47;;;-0.20;92.50;;;;;;5113690;27;20240;-50
2021/03/07 03:44:34;;;;;;;6.30;5.45;;;-0.10;93.20;;;;;;5124871;27;20269;-50
2021/03/07 03:47:03;;;;;;;8.32;5.95;;;-0.10;93.30;;;;;;5133470;27;20683;-50
2021/03/07 03:49:35;;;;;;;6.55;5.20;;;-0.10;93.30;;;;;;5121951;27;20222;-50
2021/03/07 03:52:04;;;;;;;7.57;6.30;;;-0.10;92.80;;;;;;5114810;27;20564;-50
2021/03/07 03:54:33;;;;;;;7.18;5.97;;;0.00;93.30;;;;;;5114914;27;20272;-50
2021/03/07 03:57:01;;;;;;;9.20;6.65;;;-0.20;93.10;;;;;;5115223;27;20238;-50
2021/03/07 03:59:29;;;;;;;7.68;5.47;;;-0.40;93.60;;;;;;5114924;27;20232;-50
2021/03/07 04:01:58;;;;;;;8.93;6.10;;;-0.30;94.10;;;;;;5114179;27;20183;-50
2021/03/07 04:04:27;;;;;;;5.90;5.30;;;-0.40;94.20;;;;;;5114195;27;20213;-50
2021/03/07 04:06:54;;;;;;;9.52;6.32;;;-0.40;94.20;;;;;;5114731;27;20249;-49
2021/03/07 04:09:21;;;;;;;7.78;6.45;;;-0.30;94.40;;;;;;5114503;27;20720;-50
2021/03/07 04:11:47;;;;;;;11.02;6.43;;;-0.20;94.90;;;;;;5114188;27;20176;-50
2021/03/07 04:14:14;;;;;;;8.75;6.13;;;-0.10;95.50;;;;;;5114083;27;20195;-50
2021/03/07 04:16:40;;;;;;;7.70;5.82;;;-0.40;95.10;;;;;;5113533;27;20290;-50
2021/03/07 04:19:07;;;;;;;8.18;5.75;;;-0.30;94.40;;;;;;5113920;27;20289;-50
2021/03/07 04:21:33;;;;;;;9.32;5.85;;;-0.20;94.40;;;;;;5114002;27;20699;-50
2021/03/07 04:23:58;;;;;;;7.30;5.97;;;-0.20;93.90;;;;;;5114496;27;20344;-50
2021/03/07 04:26:24;;;;;;;9.67;5.27;;;-0.10;94.20;;;;;;5113930;27;20570;-50
2021/03/07 04:28:51;;;;;;;7.80;5.83;;;-0.20;94.40;;;;;;5113011;28;20182;-50
2021/03/07 04:31:17;;;;;;;6.72;5.45;;;-0.30;94.40;;;;;;5113445;27;20232;-50
2021/03/07 04:33:43;;;;;;;7.00;6.15;;;-0.40;94.50;;;;;;5114139;27;20242;-49
2021/03/07 04:36:09;;;;;;;8.30;6.15;;;-0.40;94.50;;;;;;5133356;27;20232;-49
2021/03/07 04:38:35;;;;;;;7.60;5.57;;;-0.20;94.90;;;;;;5114109;27;20683;-50
2021/03/07 04:41:01;;;;;;;6.93;5.70;;;-0.40;94.70;;;;;;5113213;27;20637;-50
2021/03/07 04:43:28;;;;;;;20.73;6.73;;;-0.40;94.90;;;;;;5113004;27;20738;-50
2021/03/07 04:45:54;;;;;;;8.20;6.40;;;-0.50;94.30;;;;;;5113016;27;20438;-50
2021/03/07 04:48:20;;;;;;;8.93;5.63;;;-0.60;94.90;;;;;;5113777;27;20203;-49
2021/03/07 04:50:45;;;;;;;6.33;5.60;;;-0.60;95.00;;;;;;5112508;27;20176;-50
2021/03/07 04:53:11;;;;;;;7.50;5.90;;;-0.60;95.20;;;;;;5134723;27;20179;-50
2021/03/07 04:55:37;;;;;;;8.37;6.27;;;-0.50;95.00;;;;;;5113532;27;20281;-50
2021/03/07 04:58:02;;;;;;;6.90;5.93;;;-0.40;94.80;;;;;;5113222;27;20714;-50
2021/03/07 05:00:28;;;;;;;9.00;5.80;;;-0.20;94.70;;;;;;5112907;27;20674;-50
2021/03/07 05:02:53;;;;;;;12.30;6.37;;;-0.20;94.50;;;;;;5113501;27;20179;-50
2021/03/07 05:05:19;;;;;;;7.00;5.63;;;0.10;94.30;;;;;;5113539;27;20183;-50
2021/03/07 05:07:45;;;;;;;7.57;5.73;;;-0.40;93.90;;;;;;5112767;27;20195;-50
2021/03/07 05:10:11;;;;;;;9.75;6.47;;;-0.20;94.10;;;;;;5113542;27;20194;-50
2021/03/07 05:12:37;;;;;;;8.65;4.90;;;-0.20;94.60;;;;;;5113337;27;20181;-50
2021/03/07 05:15:05;;;;;;;7.30;5.90;;;-0.50;94.50;;;;;;5112561;27;20293;-50
2021/03/07 05:17:31;;;;;;;7.30;5.80;;;-0.20;94.00;;;;;;5112763;27;20755;-50
2021/03/07 05:19:56;;;;;;;11.40;6.10;;;-0.30;94.30;;;;;;5112732;27;20271;-50
2021/03/07 05:22:22;;;;;;;10.13;6.10;;;-0.20;94.40;;;;;;5112812;27;20215;-49
2021/03/07 05:24:47;;;;;;;7.17;6.00;;;-0.20;94.60;;;;;;5112935;27;20269;-50
2021/03/07 05:27:13;;;;;;;11.07;6.67;;;-0.20;94.60;;;;;;5112546;27;20639;-50
2021/03/07 05:29:39;;;;;;;9.23;7.20;;;-0.10;94.50;;;;;;5113033;27;20633;-50
2021/03/07 05:32:06;;;;;;;7.57;6.20;;;0.00;94.40;;;;;;5111591;27;20621;-49
2021/03/07 05:34:31;;;;;;;9.05;6.72;;;-0.20;94.40;;;;;;5112764;27;20187;-50
2021/03/07 05:36:57;;;;;;;8.23;6.23;;;-0.30;94.30;;;;;;5112401;27;20206;-50
2021/03/07 05:39:25;;;;;;;10.87;6.40;;;-0.30;94.60;;;;;;5112586;27;20531;-50
2021/03/07 05:41:52;;;;;;;7.25;5.60;;;-0.40;94.70;;;;;;5111664;27;20183;-49
2021/03/07 05:44:18;;;;;;;8.95;6.57;;;-0.30;94.90;;;;;;5112542;27;20218;-50
2021/03/07 05:46:44;;;;;;;8.32;6.10;;;-0.40;95.00;;;;;;5112154;27;20196;-51
2021/03/07 05:49:09;;;;;;;8.13;6.13;;;-0.40;95.00;;;;;;5112162;27;20185;-50
2021/03/07 05:51:36;;;;;;;7.93;5.67;;;-0.40;95.10;;;;;;5112017;27;20176;-50
2021/03/07 05:54:02;;;;;;;10.07;6.82;;;-0.30;94.90;;;;;;5112458;27;20183;-50
2021/03/07 05:56:28;;;;;;;11.30;6.88;;;-0.50;95.00;;;;;;5111630;27;20281;-50
2021/03/07 05:58:56;;;;;;;8.32;6.60;;;-0.50;95.50;;;;;;5111405;27;20302;-50
2021/03/07 06:01:22;;;;;;;8.95;5.90;;;-0.20;95.60;;;;;;5111527;27;20179;-50
2021/03/07 06:03:47;;;;;;;7.30;6.30;;;-0.30;95.20;;;;;;5110322;27;20185;-50
2021/03/07 06:06:13;;;;;;;8.47;6.77;;;-0.40;95.00;;;;;;5103824;27;20171;-50
2021/03/07 06:08:39;;;;;;;9.63;6.00;;;-0.40;94.90;;;;;;5112593;27;20186;-49
2021/03/07 06:11:05;;;;;;;9.03;6.80;;;-0.20;95.60;;;;;;5112245;27;20184;-49
2021/03/07 06:13:43;;;;;;;6.90;5.47;;;-0.10;96.20;;;;;;5112422;27;20279;-50
2021/03/07 06:16:11;;;;;;;9.02;6.80;;;-0.40;95.70;;;;;;5114465;27;20225;-49
2021/03/07 06:18:43;;;;;;;7.47;5.78;;;-0.20;95.40;;;;;;5113356;27;20310;-51
2021/03/07 06:21:32;;;;;;;9.75;7.25;;;-0.30;95.20;;;;;;5129340;27;20185;-50
2021/03/07 06:24:00;;;;;;;10.48;7.32;;;-0.30;95.10;;;;;;5108490;27;20183;-50
2021/03/07 06:26:26;;;;;;;8.25;6.30;;;-0.40;94.90;;;;;;5107227;27;20200;-50
2021/03/07 06:29:09;;;;;;;8.30;7.20;;;-0.30;95.30;;;;;;5141289;27;20187;-50
2021/03/07 06:31:36;;;;;;;8.70;6.45;;;-0.30;95.20;;;;;;5129667;27;20196;-50
2021/03/07 06:34:02;;;;;;;9.57;6.97;;;-0.20;95.30;;;;;;5121833;27;20801;-50
2021/03/07 06:36:29;;;;;;;11.38;7.93;;;-0.20;95.20;;;;;;5101167;28;20214;-52
2021/03/07 06:38:58;;;;;;;7.97;6.97;;;-0.10;95.20;;;;;;5099398;27;20636;-52
2021/03/07 06:41:26;;;;;;;7.57;6.65;;;-0.30;95.00;;;;;;5104290;27;20594;-51
2021/03/07 06:44:04;;;;;;;6.95;6.22;;;-0.20;95.00;;;;;;5101337;27;20234;-51
2021/03/07 06:46:36;;;;;;;8.00;6.93;;;-0.20;94.40;;;;;;5101846;27;20704;-50
2021/03/07 06:49:03;;;;;;;8.30;6.72;;;-0.10;95.10;;;;;;5099628;27;20548;-50
2021/03/07 06:51:35;;;;;;;8.90;6.68;;;-0.30;95.00;;;;;;5105356;27;20632;-50
2021/03/07 06:54:15;;;;;;;9.10;6.93;;;0.10;95.10;;;;;;5108106;28;20204;-51
2021/03/07 06:56:49;;;;;;;10.00;6.85;;;0.00;95.00;;;;;;5115685;28;20693;-51
2021/03/07 06:59:18;;;;;;;9.98;7.07;;;0.20;94.90;;;;;;5104141;28;20282;-51
2021/03/07 07:01:49;;;;;;;10.75;6.70;;;0.50;95.10;;;;;;5104455;28;20657;-50
2021/03/07 07:04:16;;;;;;;8.57;7.05;;;0.40;94.20;;;;;;5103365;28;20191;-50
2021/03/07 07:06:43;;;;;;;7.63;6.80;;;0.70;94.10;;;;;;5104422;28;20206;-51
2021/03/07 07:09:10;;;;;;;8.20;6.55;;;0.40;93.70;;;;;;5104886;28;20215;-50
2021/03/07 07:11:45;;;;;;;9.80;6.50;;;0.40;94.10;;;;;;5100832;28;20191;-51
2021/03/07 07:14:12;;;;;;;8.82;6.40;;;0.80;94.40;;;;;;5105198;28;20200;-50
2021/03/07 07:16:39;;;;;;;12.00;7.78;;;0.90;94.00;;;;;;5105752;28;20206;-51
2021/03/07 07:19:05;;;;;;;9.63;7.15;;;1.10;93.50;;;;;;5104424;28;20567;-51
2021/03/07 07:21:31;;;;;;;9.57;7.90;;;0.90;93.10;;;;;;5102617;28;20195;-52
2021/03/07 07:23:56;;;;;;;11.32;9.13;;;0.80;93.00;;;;;;5101779;28;20179;-50
2021/03/07 07:26:22;;;;;;;9.03;6.90;;;1.30;93.10;;;;;;5104845;27;20241;-50
2021/03/07 07:28:48;;;;;;;8.97;7.50;;;1.40;92.80;;;;;;5103248;28;20783;-49
2021/03/07 07:31:22;;;;;;;8.27;6.53;;;1.60;92.20;;;;;;5105827;28;20278;-50
2021/03/07 07:33:59;;;;;;;9.82;7.57;;;1.90;92.20;;;;;;5103435;28;20263;-50
2021/03/07 07:36:31;;;;;;;8.80;7.90;;;2.50;91.50;;;;;;5115424;27;20202;-50
2021/03/07 07:38:58;;;;;;;8.65;7.40;;;3.10;90.60;;;;;;5110199;28;20207;-51
2021/03/07 07:41:28;;;;;;;8.30;7.30;;;3.50;88.20;;;;;;5111953;28;20636;-50
2021/03/07 07:43:54;;;;;;;8.88;7.50;;;3.90;86.60;;;;;;5110235;28;20713;-50
2021/03/07 07:46:19;;;;;;;8.10;7.27;;;3.90;84.70;;;;;;5110262;28;20199;-50
2021/03/07 07:48:46;;;;;;;9.37;7.30;;;4.20;84.20;;;;;;5106720;28;20189;-50
2021/03/07 07:51:31;;;;;;;10.57;6.93;;;4.50;82.90;;;;;;5108274;28;20195;-50
2021/03/07 07:53:57;;;;;;;10.00;7.32;;;4.30;81.50;;;;;;5104783;28;20184;-50
2021/03/07 07:56:38;;;;;;;8.75;7.57;;;4.50;82.00;;;;;;5109101;27;20263;-50
2021/03/07 07:59:05;;;;;;;7.47;6.45;;;4.30;81.10;;;;;;5111349;28;20315;-50
2021/03/07 08:01:52;;;;;;;10.00;8.32;;;3.90;82.10;;;;;;5106867;28;20187;-51
2021/03/07 08:04:27;;;;;;;9.00;6.85;;;4.20;82.00;;;;;;5109484;27;20191;-50
2021/03/07 08:06:56;;;;;;;8.02;7.05;;;4.00;82.40;;;;;;5128904;27;20211;-50
2021/03/07 08:09:37;;;;;;;8.68;7.70;;;3.60;82.80;;;;;;5111498;27;20187;-50
2021/03/07 08:12:40;;;;;;;9.88;7.65;;;3.70;84.30;;;;;;5122797;27;20248;-50
2021/03/07 08:15:26;;;;;;;9.93;8.48;;;3.30;86.10;;;;;;5107212;27;20194;-50
2021/03/07 08:17:57;;;;;;;13.50;7.25;;;3.30;87.50;;;;;;5098751;27;20206;-50
2021/03/07 08:20:40;;;;;;;9.27;7.88;;;3.30;87.00;;;;;;5111786;27;20179;-50
2021/03/07 08:23:25;;;;;;;9.30;7.50;;;3.20;87.40;;;;;;5111061;27;20259;-50
2021/03/07 08:25:54;;;;;;;10.82;8.15;;;3.30;86.20;;;;;;5108359;28;20188;-51
2021/03/07 08:28:33;;;;;;;8.88;7.43;;;3.90;84.50;;;;;;5102662;28;20207;-50
2021/03/07 08:31:29;;;;;;;8.95;7.85;;;4.20;84.60;;;;;;5121733;27;20303;-50
2021/03/07 08:34:18;;;;;;;8.93;8.02;;;4.40;89.10;;;;;;5093361;27;20200;-50
2021/03/07 08:36:55;;;;;;;12.00;8.55;;;4.40;87.40;;;;;;5101992;27;20713;-51
2021/03/07 08:39:21;;;;;;;12.35;8.88;;;4.20;90.30;;;;;;5111086;27;20269;-51
2021/03/07 08:41:46;;;;;;;9.60;8.60;;;4.50;88.10;;;;;;5109317;27;20275;-50
2021/03/07 08:44:14;;;;;;;9.80;8.70;;;4.80;83.30;;;;;;5127224;27;20175;-50
2021/03/07 08:46:41;;;;;;;9.75;8.75;;;4.80;81.00;;;;;;5130654;27;20204;-50
2021/03/07 08:49:15;;;;;;;10.65;9.07;;;5.20;80.70;;;;;;5132207;27;20544;-51
2021/03/07 08:51:45;;;;;;;11.02;9.50;;;5.00;82.40;;;;;;5111352;27;20179;-50
2021/03/07 08:54:22;;;;;;;11.55;8.35;;;5.70;79.40;;;;;;5094579;27;20242;-50
2021/03/07 08:56:49;;;;;;;9.80;7.82;;;5.90;77.60;;;;;;5113159;27;20233;-50
2021/03/07 08:59:15;;;;;;;12.45;8.82;;;5.70;77.20;;;;;;5112094;27;20582;-50
2021/03/07 09:01:42;;;;;;;9.52;8.30;;;5.80;77.10;;;;;;5112128;27;20586;-50
2021/03/07 09:04:09;;;;;;;8.90;8.00;;;6.10;76.00;;;;;;5110718;27;20185;-49
2021/03/07 09:06:44;;;;;;;10.82;8.80;;;6.20;77.40;;;;;;5115563;27;20677;-50
2021/03/07 09:09:16;;;;;;;8.85;7.75;;;6.20;76.00;;;;;;5111810;27;20188;-49
2021/03/07 09:11:59;;;;;;;19.95;12.10;;;6.40;74.90;;;;;;5113017;27;20187;-49
2021/03/07 09:14:39;;;;;;;10.05;8.95;;;6.80;76.30;;;;;;5103525;27;20247;-50
2021/03/07 09:17:16;;;;;;;9.10;7.82;;;7.30;73.00;;;;;;5111568;27;20195;-49
2021/03/07 09:19:42;;;;;;;10.00;8.23;;;7.40;72.20;;;;;;5110267;27;20182;-50
2021/03/07 09:22:17;;;;;;;9.00;7.53;;;7.90;70.50;;;;;;5108985;27;20748;-50
2021/03/07 09:25:03;;;;;;;10.65;8.95;;;8.30;68.40;;;;;;5110415;27;20198;-50
2021/03/07 09:27:34;;;;;;;10.20;8.93;;;8.50;67.30;;;;;;5110100;27;20210;-50
2021/03/07 09:30:14;;;;;;;8.20;7.43;;;8.50;66.00;;;;;;5111533;27;20190;-50
2021/03/07 09:32:45;;;;;;;9.15;8.23;;;8.20;66.20;;;;;;5129082;27;20283;-50
2021/03/07 09:35:20;;;;;;;9.88;7.93;;;8.00;67.60;;;;;;5111852;27;20198;-50
2021/03/07 09:37:58;;;;;;;8.85;7.65;;;8.40;70.60;;;;;;5107024;27;20271;-50
2021/03/07 09:40:24;;;;;;;9.85;8.07;;;8.80;71.30;;;;;;5125245;27;20187;-50
2021/03/07 09:43:03;;;;;;;9.80;8.02;;;9.60;68.60;;;;;;5110890;27;20215;-50
2021/03/07 09:45:29;;;;;;;9.02;7.60;;;10.00;67.60;;;;;;5108708;27;20181;-52
2021/03/07 09:47:56;;;;;;;8.55;7.70;;;10.60;63.40;;;;;;5106387;27;20346;-52
2021/03/07 09:50:23;;;;;;;10.77;9.63;;;11.20;63.70;;;;;;5101964;27;20186;-52
2021/03/07 09:52:50;;;;;;;10.20;9.20;;;11.10;61.40;;;;;;5104730;27;20689;-51
2021/03/07 09:55:29;;;;;;;10.10;8.98;;;11.20;60.10;;;;;;5104000;27;20242;-51
2021/03/07 09:58:09;;;;;;;8.50;7.68;;;10.90;59.70;;;;;;5109446;27;21959;-52
2021/03/07 10:00:40;;;;;;;12.23;9.82;;;11.40;59.10;;;;;;5105933;27;20816;-51
2021/03/07 10:03:18;;;;;;;11.95;9.02;;;12.10;57.30;;;;;;5107107;27;20182;-51
2021/03/07 10:06:03;;;;;;;9.38;8.38;;;12.40;56.20;;;;;;5107841;27;20183;-51
2021/03/07 10:08:31;;;;;;;10.32;9.30;;;12.10;57.20;;;;;;5120996;27;20234;-52
2021/03/07 10:11:14;;;;;;;9.43;8.52;;;12.40;56.00;;;;;;5112753;27;20567;-52
2021/03/07 10:13:40;;;;;;;9.68;8.68;;;12.60;56.00;;;;;;5109433;27;20288;-51
2021/03/07 10:16:09;;;;;;;9.02;8.07;;;12.30;55.30;;;;;;5111739;27;20190;-51
2021/03/07 10:18:35;;;;;;;10.85;9.75;;;11.70;55.50;;;;;;5110560;27;20205;-51
2021/03/07 10:21:01;;;;;;;11.60;10.40;;;11.10;56.70;;;;;;5107971;27;20340;-52
2021/03/07 10:23:28;;;;;;;9.60;8.20;;;10.80;57.80;;;;;;5110702;27;20717;-51
2021/03/07 10:25:54;;;;;;;11.35;9.00;;;11.00;60.20;;;;;;5110182;27;20750;-52
2021/03/07 10:28:23;;;;;;;9.68;8.73;;;10.40;59.00;;;;;;5110786;27;20232;-51
2021/03/07 10:30:52;;;;;;;9.70;8.73;;;10.50;59.60;;;;;;5110307;27;20280;-52
2021/03/07 10:33:27;;;;;;;10.15;9.15;;;10.70;58.80;;;;;;5112201;27;20755;-51
2021/03/07 10:36:10;;;;;;;9.27;8.32;;;10.70;59.10;;;;;;5109371;27;20191;-52
2021/03/07 10:38:44;;;;;;;10.10;8.98;;;10.90;57.80;;;;;;5111515;27;20245;-52
2021/03/07 10:41:32;;;;;;;10.85;8.32;;;10.80;59.00;;;;;;5111197;27;20184;-52
2021/03/07 10:44:05;;;;;;;12.23;8.82;;;11.30;58.60;;;;;;5111156;27;20695;-51
2021/03/07 10:46:35;;;;;;;9.75;8.75;;;11.00;57.50;;;;;;5110768;27;20199;-50
2021/03/07 10:49:04;;;;;;;9.65;8.60;;;11.10;58.60;;;;;;5112126;27;20220;-51
2021/03/07 10:51:30;;;;;;;9.32;8.43;;;10.60;60.30;;;;;;5110435;28;20183;-50
2021/03/07 10:53:56;;;;;;;10.23;9.15;;;11.10;57.80;;;;;;5122363;27;20678;-50
2021/03/07 10:56:28;;;;;;;10.38;9.27;;;11.60;57.30;;;;;;5104163;28;20213;-50
2021/03/07 10:58:55;;;;;;;11.18;9.30;;;11.30;57.10;;;;;;5128363;28;20248;-50
2021/03/07 11:01:20;;;;;;;12.25;9.98;;;11.20;57.40;;;;;;5108925;28;20565;-50
2021/03/07 11:03:46;;;;;;;10.43;9.27;;;11.50;56.70;;;;;;5109634;28;20177;-49
2021/03/07 11:06:12;;;;;;;9.17;8.20;;;11.80;57.00;;;;;;5129039;27;20181;-51
2021/03/07 11:08:38;;;;;;;11.07;9.03;;;11.80;55.90;;;;;;5110826;28;20228;-50
2021/03/07 11:11:07;;;;;;;10.30;9.20;;;11.10;58.80;;;;;;5125799;28;20210;-49
2021/03/07 11:13:34;;;;;;;10.93;9.35;;;11.60;57.90;;;;;;5122901;27;20198;-51
2021/03/07 11:16:00;;;;;;;11.93;10.10;;;11.60;56.40;;;;;;5125130;27;20234;-50
2021/03/07 11:18:26;;;;;;;13.00;10.10;;;12.40;57.70;;;;;;5105233;28;20267;-50
2021/03/07 11:20:52;;;;;;;11.00;9.87;;;12.70;56.30;;;;;;5101576;28;20635;-50
2021/03/07 11:23:18;;;;;;;9.37;8.33;;;12.60;55.00;;;;;;5105517;28;20802;-49
2021/03/07 11:25:44;;;;;;;11.02;9.30;;;12.50;54.80;;;;;;5105313;28;20933;-51
2021/03/07 11:28:10;;;;;;;10.80;9.70;;;12.00;55.60;;;;;;5101367;28;20234;-51
2021/03/07 11:30:36;;;;;;;10.30;8.90;;;12.20;56.70;;;;;;5123058;28;20232;-51
2021/03/07 11:33:02;;;;;;;10.80;9.20;;;12.80;54.70;;;;;;5106829;28;20450;-52
2021/03/07 11:35:28;;;;;;;10.60;9.55;;;12.90;54.50;;;;;;5105193;28;20186;-50
2021/03/07 11:37:54;;;;;;;11.13;10.10;;;12.70;54.20;;;;;;5106507;28;20210;-51
2021/03/07 11:40:19;;;;;;;11.07;9.85;;;11.80;55.10;;;;;;5106513;27;20178;-50
2021/03/07 11:42:45;;;;;;;10.77;9.73;;;12.00;55.20;;;;;;5110393;27;20590;-51
2021/03/07 11:45:11;;;;;;;10.97;9.87;;;12.00;56.20;;;;;;5129117;27;20261;-49
2021/03/07 11:47:37;;;;;;;11.05;9.43;;;12.30;55.60;;;;;;5108710;27;20204;-51
2021/03/07 11:50:04;;;;;;;10.57;9.57;;;12.00;55.40;;;;;;5107984;27;20549;-51
2021/03/07 11:52:30;;;;;;;10.75;9.57;;;11.90;56.50;;;;;;5108053;27;20436;-50
2021/03/07 11:54:55;;;;;;;10.80;9.70;;;11.70;56.80;;;;;;5126988;27;20188;-49
2021/03/07 11:57:21;;;;;;;10.83;9.60;;;11.50;57.50;;;;;;5109262;27;20205;-50
2021/03/07 11:59:47;;;;;;;10.80;9.60;;;11.70;57.00;;;;;;5109614;27;20538;-51
2021/03/07 12:02:12;;;;;;;10.87;9.47;;;11.90;57.70;;;;;;5109010;27;20207;-52
2021/03/07 12:04:38;;;;;;;10.47;9.03;;;11.60;56.60;;;;;;5108802;27;20623;-51
2021/03/07 12:07:06;;;;;;;9.87;8.87;;;11.90;56.10;;;;;;5108110;27;20200;-52
2021/03/07 12:09:31;;;;;;;9.93;9.00;;;11.70;55.60;;;;;;5107582;27;20822;-53
2021/03/07 12:11:57;;;;;;;11.40;8.73;;;11.00;57.40;;;;;;5108529;27;20288;-49
2021/03/07 12:14:23;;;;;;;11.07;9.63;;;11.40;57.40;;;;;;5107801;27;20188;-51
2021/03/07 12:16:48;;;;;;;10.27;8.77;;;11.60;56.60;;;;;;5107874;27;20432;-53
2021/03/07 12:19:14;;;;;;;10.30;8.30;;;11.60;55.60;;;;;;5123598;27;20601;-49
2021/03/07 12:21:40;;;;;;;10.33;8.70;;;11.90;55.70;;;;;;5108656;27;20188;-49
2021/03/07 12:24:06;;;;;;;12.00;9.13;;;11.70;56.10;;;;;;5123086;27;20382;-49
2021/03/07 12:26:32;;;;;;;9.80;8.80;;;11.80;55.80;;;;;;5105368;27;20194;-49
2021/03/07 12:28:58;;;;;;;10.30;9.20;;;11.50;55.50;;;;;;5108420;27;20600;-49
2021/03/07 12:31:23;;;;;;;12.83;9.57;;;11.50;56.30;;;;;;5111692;27;20533;-49
2021/03/07 12:33:49;;;;;;;10.03;8.80;;;11.40;56.60;;;;;;5107276;27;20184;-48
2021/03/07 12:36:16;;;;;;;10.53;8.90;;;11.80;55.60;;;;;;5108263;27;20185;-49
2021/03/07 12:38:44;;;;;;;10.25;8.88;;;11.20;55.30;;;;;;5111524;27;20560;-48
2021/03/07 12:41:10;;;;;;;10.35;8.48;;;11.60;55.20;;;;;;5107928;27;20648;-49
2021/03/07 12:43:36;;;;;;;14.37;9.00;;;11.30;55.80;;;;;;5106501;27;20223;-51
2021/03/07 12:46:02;;;;;;;10.53;9.33;;;11.20;56.70;;;;;;5107496;27;20193;-51
2021/03/07 12:48:27;;;;;;;10.50;9.40;;;11.30;56.80;;;;;;5107982;27;20434;-50
2021/03/07 12:50:53;;;;;;;11.23;9.70;;;11.40;56.50;;;;;;5106347;27;20442;-51
2021/03/07 12:53:19;;;;;;;10.57;9.57;;;11.70;55.90;;;;;;5105258;27;20185;-51
2021/03/07 12:55:44;;;;;;;10.07;8.97;;;11.80;55.50;;;;;;5105211;27;20200;-51